createdAt,value
2022-10-17T00:02:15.495Z,92.95
2022-10-17T00:04:43.008Z,95.42
2022-10-17T00:07:10.345Z,94.58
2022-10-17T00:09:37.702Z,94.30
2022-10-17T00:12:05.461Z,95.22
2022-10-17T00:14:32.817Z,95.96
2022-10-17T00:17:00.125Z,96.38
2022-10-17T00:19:28.806Z,94.78
2022-10-17T00:21:56.134Z,94.50
2022-10-17T00:24:23.462Z,95.36
2022-10-17T00:26:50.799Z,93.98
2022-10-17T00:29:18.196Z,94.75
2022-10-17T00:31:45.614Z,96.07
2022-10-17T00:34:12.978Z,94.50
2022-10-17T00:36:41.722Z,92.81
2022-10-17T00:39:10.101Z,94.06
2022-10-17T00:41:37.437Z,93.51
2022-10-17T00:44:06.392Z,92.44
2022-10-17T00:46:34.634Z,92.17
2022-10-17T00:49:03.482Z,91.18
2022-10-17T00:51:34.690Z,92.53
2022-10-17T00:54:03.837Z,91.61
2022-10-17T00:56:31.592Z,91.62
2022-10-17T00:58:59.050Z,91.63
2022-10-17T01:01:26.647Z,91.68
2022-10-17T01:03:54.017Z,92.01
2022-10-17T01:06:21.342Z,91.57
2022-10-17T01:08:48.725Z,91.34
2022-10-17T01:11:23.972Z,91.08
2022-10-17T01:13:53.547Z,91.07
2022-10-17T01:16:29.066Z,91.24
2022-10-17T01:19:01.994Z,91.11
2022-10-17T01:21:34.678Z,91.04
2022-10-17T01:24:11.160Z,91.85
2022-10-17T01:26:46.198Z,91.04
2022-10-17T01:29:19.589Z,90.89
2022-10-17T01:31:49.735Z,90.73
2022-10-17T01:34:19.890Z,91.06
2022-10-17T01:36:51.911Z,91.26
2022-10-17T01:39:25.888Z,90.89
2022-10-17T01:41:59.037Z,90.79
2022-10-17T01:44:29.790Z,91.05
2022-10-17T01:47:01.245Z,91.22
2022-10-17T01:49:30.549Z,91.08
2022-10-17T01:51:59.898Z,91.09
2022-10-17T01:54:31.610Z,91.48
2022-10-17T01:57:00.985Z,90.85
2022-10-17T01:59:30.942Z,90.83
2022-10-17T02:02:00.408Z,90.91
2022-10-17T02:04:28.218Z,90.77
2022-10-17T02:06:55.576Z,90.59
2022-10-17T02:09:24.474Z,90.59
2022-10-17T02:11:56.903Z,90.48
2022-10-17T02:14:30.673Z,90.33
2022-10-17T02:17:03.406Z,90.31
2022-10-17T02:19:47.326Z,90.18
2022-10-17T02:22:19.361Z,90.54
2022-10-17T02:24:49.037Z,89.99
2022-10-17T02:27:18.094Z,90.15
2022-10-17T02:29:48.037Z,90.14
2022-10-17T02:32:19.502Z,89.76
2022-10-17T02:34:49.266Z,90.36
2022-10-17T02:37:17.674Z,90.08
2022-10-17T02:39:45.166Z,90.01
2022-10-17T02:42:14.329Z,89.92
2022-10-17T02:44:43.476Z,89.59
2022-10-17T02:47:14.125Z,89.83
2022-10-17T02:49:45.096Z,90.32
2022-10-17T02:52:14.657Z,89.85
2022-10-17T02:54:44.253Z,89.81
2022-10-17T02:57:13.537Z,90.16
2022-10-17T02:59:42.030Z,89.60
2022-10-17T03:02:09.420Z,89.75
2022-10-17T03:04:36.782Z,89.80
2022-10-17T03:07:05.457Z,89.87
2022-10-17T03:09:32.773Z,89.68
2022-10-17T03:12:00.173Z,89.83
2022-10-17T03:14:27.516Z,89.57
2022-10-17T03:16:54.854Z,89.61
2022-10-17T03:19:22.204Z,89.19
2022-10-17T03:21:50.213Z,89.25
2022-10-17T03:24:18.902Z,89.16
2022-10-17T03:29:18.522Z,89.48
2022-10-17T03:31:45.888Z,89.46
2022-10-17T03:34:13.224Z,89.74
2022-10-17T03:36:40.573Z,89.82
2022-10-17T03:39:07.910Z,89.71
2022-10-17T03:41:36.593Z,89.46
2022-10-17T03:44:03.989Z,89.17
2022-10-17T03:46:31.330Z,89.30
2022-10-17T03:48:58.681Z,89.18
2022-10-17T03:51:26.065Z,89.44
2022-10-17T03:53:53.421Z,89.43
2022-10-17T03:56:21.489Z,89.61
2022-10-17T03:58:50.521Z,89.52
2022-10-17T04:01:18.707Z,89.40
2022-10-17T04:03:49.561Z,89.28
2022-10-17T04:06:16.913Z,89.20
2022-10-17T04:08:44.270Z,89.35
2022-10-17T04:11:14.233Z,89.38
2022-10-17T04:13:41.742Z,89.64
2022-10-17T04:16:12.770Z,89.31
2022-10-17T04:18:40.112Z,89.01
2022-10-17T04:21:08.035Z,89.01
2022-10-17T04:23:35.821Z,89.11
2022-10-17T04:26:03.775Z,89.40
2022-10-17T04:28:32.041Z,88.97
2022-10-17T04:30:59.956Z,89.19
2022-10-17T04:33:28.776Z,89.20
2022-10-17T04:35:56.822Z,89.40
2022-10-17T04:38:27.746Z,89.37
2022-10-17T04:40:57.833Z,89.02
2022-10-17T04:43:25.153Z,89.32
2022-10-17T04:45:52.493Z,89.18
2022-10-17T04:48:19.896Z,89.25
2022-10-17T04:50:55.909Z,89.36
2022-10-17T04:53:23.696Z,89.31
2022-10-17T04:55:51.038Z,89.45
2022-10-17T04:58:21.484Z,89.46
2022-10-17T05:00:48.892Z,89.42
2022-10-17T05:03:16.541Z,89.29
2022-10-17T05:05:43.926Z,89.60
2022-10-17T05:08:13.076Z,89.31
2022-10-17T05:10:41.233Z,89.20
2022-10-17T05:13:08.624Z,89.42
2022-10-17T05:15:36.077Z,89.23
2022-10-17T05:18:03.497Z,89.09
2022-10-17T05:20:30.820Z,89.37
2022-10-17T05:22:59.426Z,89.33
2022-10-17T05:25:28.112Z,89.52
2022-10-17T05:27:55.507Z,89.38
2022-10-17T05:30:23.430Z,89.20
2022-10-17T05:32:53.167Z,89.01
2022-10-17T05:35:20.535Z,89.10
2022-10-17T05:37:47.906Z,88.97
2022-10-17T05:40:15.421Z,88.97
2022-10-17T05:42:48.229Z,88.96
2022-10-17T05:45:15.773Z,89.20
2022-10-17T05:47:43.204Z,89.47
2022-10-17T05:50:21.323Z,89.33
2022-10-17T05:53:12.305Z,88.76
2022-10-17T05:55:39.642Z,89.07
2022-10-17T05:58:09.755Z,88.63
2022-10-17T06:03:20.534Z,89.01
2022-10-17T06:05:47.872Z,89.05
2022-10-17T06:08:15.228Z,88.94
2022-10-17T06:10:42.562Z,88.82
2022-10-17T06:13:11.241Z,88.94
2022-10-17T06:15:38.592Z,89.13
2022-10-17T06:18:05.939Z,88.88
2022-10-17T06:20:33.284Z,88.98
2022-10-17T06:23:00.700Z,88.56
2022-10-17T06:25:29.102Z,91.91
2022-10-17T06:27:56.474Z,89.22
2022-10-17T06:30:25.161Z,88.74
2022-10-17T06:32:54.384Z,89.63
2022-10-17T06:35:21.778Z,89.13
2022-10-17T06:37:49.115Z,90.46
2022-10-17T06:40:17.141Z,93.80
2022-10-17T06:42:44.788Z,93.18
2022-10-17T06:45:12.321Z,93.81
2022-10-17T06:47:41.043Z,92.77
2022-10-17T06:50:08.681Z,95.86
2022-10-17T06:52:36.014Z,94.60
2022-10-17T06:57:30.998Z,91.27
2022-10-17T06:59:58.599Z,96.10
2022-10-17T07:02:26.042Z,95.29
2022-10-17T07:04:56.359Z,94.38
2022-10-17T07:07:23.689Z,96.04
2022-10-17T07:09:52.251Z,96.49
2022-10-17T07:12:19.575Z,98.14
2022-10-17T07:14:47.320Z,100.00
2022-10-17T07:17:14.662Z,99.24
2022-10-17T07:19:43.335Z,100.00
2022-10-17T07:22:12.499Z,97.86
2022-10-17T07:24:40.021Z,100.00
2022-10-17T07:27:07.477Z,100.00
2022-10-17T07:29:34.871Z,100.00
2022-10-17T07:32:03.879Z,100.00
2022-10-17T07:34:31.442Z,100.00
2022-10-17T07:36:58.841Z,100.00
2022-10-17T07:39:27.585Z,100.00
2022-10-17T07:41:55.137Z,100.00
2022-10-17T07:44:22.496Z,100.00
2022-10-17T07:46:49.918Z,100.00
2022-10-17T07:49:17.315Z,100.00
2022-10-17T07:51:44.824Z,100.00
2022-10-17T07:54:12.278Z,100.00
2022-10-17T07:56:41.050Z,100.00
2022-10-17T07:59:09.479Z,100.00
2022-10-17T08:01:37.821Z,100.00
2022-10-17T08:04:05.166Z,100.00
2022-10-17T08:06:32.515Z,100.00
2022-10-17T08:09:01.516Z,100.00
2022-10-17T08:11:28.874Z,100.00
2022-10-17T08:13:57.554Z,100.00
2022-10-17T08:16:24.895Z,100.00
2022-10-17T08:18:52.238Z,100.00
2022-10-17T08:21:19.639Z,100.00
2022-10-17T08:23:47.048Z,100.00
2022-10-17T08:26:17.143Z,100.00
2022-10-17T08:28:44.786Z,100.00
2022-10-17T08:31:14.243Z,100.00
2022-10-17T08:33:41.780Z,100.00
2022-10-17T08:36:09.888Z,100.00
2022-10-17T08:38:41.442Z,100.00
2022-10-17T08:41:33.041Z,100.00
2022-10-17T08:44:04.796Z,100.00
2022-10-17T08:46:35.203Z,100.00
2022-10-17T08:49:03.722Z,100.00
2022-10-17T08:51:33.443Z,100.00
2022-10-17T08:54:06.028Z,100.00
2022-10-17T08:56:48.032Z,100.00
2022-10-17T08:59:18.720Z,100.00
2022-10-17T09:01:50.590Z,100.00
2022-10-17T09:04:34.271Z,100.00
2022-10-17T09:07:06.059Z,100.00
2022-10-17T09:09:37.520Z,100.00
2022-10-17T09:12:12.676Z,100.00
2022-10-17T09:14:53.924Z,100.00
2022-10-17T09:17:28.785Z,100.00
2022-10-17T09:20:00.237Z,100.00
2022-10-17T09:22:29.354Z,100.00
2022-10-17T09:24:58.264Z,100.00
2022-10-17T09:27:27.084Z,100.00
2022-10-17T09:29:56.333Z,100.00
2022-10-17T09:32:26.342Z,100.00
2022-10-17T09:34:56.581Z,100.00
2022-10-17T09:37:28.863Z,100.00
2022-10-17T09:39:56.248Z,100.00
2022-10-17T09:42:25.677Z,100.00
2022-10-17T09:44:56.684Z,100.00
2022-10-17T09:47:29.273Z,100.00
2022-10-17T09:49:56.643Z,100.00
2022-10-17T09:52:27.789Z,100.00
2022-10-17T09:54:57.880Z,100.00
2022-10-17T09:57:25.442Z,100.00
2022-10-17T09:59:57.982Z,100.00
2022-10-17T10:02:28.295Z,100.00
2022-10-17T10:05:06.630Z,100.00
2022-10-17T10:07:35.756Z,100.00
2022-10-17T10:10:03.994Z,100.00
2022-10-17T10:12:32.786Z,100.00
2022-10-17T10:15:00.248Z,100.00
2022-10-17T10:17:30.391Z,100.00
2022-10-17T10:19:57.726Z,98.28
2022-10-17T10:22:25.069Z,96.36
2022-10-17T10:25:08.127Z,98.08
2022-10-17T10:27:35.603Z,99.77
2022-10-17T10:30:03.419Z,96.10
2022-10-17T10:32:32.952Z,96.43
2022-10-17T10:35:01.917Z,95.80
2022-10-17T10:37:30.500Z,96.75
2022-10-17T10:39:59.451Z,98.50
2022-10-17T10:42:29.275Z,100.00
2022-10-17T10:44:59.534Z,96.01
2022-10-17T10:47:28.767Z,97.94
2022-10-17T10:50:10.037Z,98.89
2022-10-17T10:52:41.093Z,97.34
2022-10-17T10:55:18.586Z,95.48
2022-10-17T10:57:47.416Z,97.22
2022-10-17T11:00:16.781Z,96.45
2022-10-17T11:02:47.396Z,93.35
2022-10-17T11:05:20.923Z,92.63
2022-10-17T11:07:52.358Z,91.91
2022-10-17T11:10:22.998Z,93.93
2022-10-17T11:12:53.147Z,92.30
2022-10-17T11:15:23.245Z,92.37
2022-10-17T11:17:55.136Z,91.82
2022-10-17T11:20:28.650Z,91.16
2022-10-17T11:22:58.611Z,89.65
2022-10-17T11:25:34.784Z,91.60
2022-10-17T11:28:05.210Z,92.63
2022-10-17T11:30:48.850Z,95.12
2022-10-17T11:33:18.392Z,95.17
2022-10-17T11:35:48.107Z,93.50
2022-10-17T11:38:18.653Z,91.57
2022-10-17T11:40:48.459Z,93.84
2022-10-17T11:43:18.621Z,93.02
2022-10-17T11:45:48.208Z,92.72
2022-10-17T11:48:18.425Z,96.30
2022-10-17T11:53:47.270Z,94.77
2022-10-17T11:56:17.687Z,89.27
2022-10-17T11:58:51.391Z,85.66
2022-10-17T12:01:23.617Z,91.43
2022-10-17T12:04:02.447Z,91.61
2022-10-17T12:06:39.613Z,87.72
2022-10-17T12:09:11.072Z,88.62
2022-10-17T12:11:43.559Z,87.85
2022-10-17T12:14:25.780Z,89.35
2022-10-17T12:16:53.817Z,88.09
2022-10-17T12:19:32.560Z,87.04
2022-10-17T12:22:03.881Z,89.49
2022-10-17T12:24:35.214Z,85.14
2022-10-17T12:27:21.161Z,86.14
2022-10-17T12:29:49.274Z,84.65
2022-10-17T12:32:16.880Z,84.82
2022-10-17T12:34:52.242Z,83.81
2022-10-17T12:37:34.486Z,84.28
2022-10-17T12:40:03.152Z,82.31
2022-10-17T12:42:31.876Z,79.60
2022-10-17T12:44:59.354Z,85.11
2022-10-17T12:47:37.400Z,83.90
2022-10-17T12:50:05.185Z,83.04
2022-10-17T12:55:21.061Z,76.86
2022-10-17T12:57:50.855Z,79.71
2022-10-17T13:00:20.817Z,80.87
2022-10-17T13:02:49.019Z,77.98
2022-10-17T13:05:20.271Z,81.75
2022-10-17T13:07:49.383Z,82.84
2022-10-17T13:13:04.354Z,84.47
2022-10-17T13:15:31.774Z,84.40
2022-10-17T13:17:59.517Z,80.66
2022-10-17T13:20:30.594Z,80.24
2022-10-17T13:22:59.144Z,77.41
2022-10-17T13:25:28.454Z,82.72
2022-10-17T13:28:13.375Z,80.24
2022-10-17T13:30:40.939Z,81.51
2022-10-17T13:33:19.924Z,79.28
2022-10-17T13:36:00.051Z,83.08
2022-10-17T13:38:29.648Z,79.61
2022-10-17T13:41:10.805Z,80.95
2022-10-17T13:43:48.146Z,81.67
2022-10-17T13:46:36.255Z,80.80
2022-10-17T13:49:11.541Z,81.81
2022-10-17T13:51:43.178Z,78.10
2022-10-17T13:54:18.906Z,79.00
2022-10-17T13:56:47.665Z,82.97
2022-10-17T13:59:23.274Z,81.37
2022-10-17T14:01:52.080Z,77.39
2022-10-17T14:04:20.167Z,82.52
2022-10-17T14:06:49.860Z,82.30
2022-10-17T14:09:22.199Z,81.99
2022-10-17T14:11:59.123Z,81.81
2022-10-17T14:14:27.340Z,80.21
2022-10-17T14:16:55.193Z,83.80
2022-10-17T14:19:25.537Z,85.91
2022-10-17T14:21:54.411Z,83.10
2022-10-17T14:24:29.327Z,85.52
2022-10-17T14:26:59.570Z,84.98
2022-10-17T14:29:28.103Z,83.94
2022-10-17T14:32:03.497Z,84.87
2022-10-17T14:34:32.570Z,86.37
2022-10-17T14:37:00.100Z,86.03
2022-10-17T14:39:28.247Z,84.16
2022-10-17T14:41:55.823Z,86.02
2022-10-17T14:44:26.832Z,85.08
2022-10-17T14:46:56.039Z,87.54
2022-10-17T14:49:28.548Z,87.82
2022-10-17T14:52:15.075Z,87.02
2022-10-17T14:54:46.357Z,86.02
2022-10-17T14:57:16.601Z,86.88
2022-10-17T14:59:54.181Z,87.08
2022-10-17T15:02:22.282Z,85.83
2022-10-17T15:04:49.644Z,87.53
2022-10-17T15:07:17.900Z,89.85
2022-10-17T15:09:45.788Z,91.00
2022-10-17T15:12:15.722Z,93.02
2022-10-17T15:14:43.851Z,92.05
2022-10-17T15:17:16.064Z,93.97
2022-10-17T15:19:43.419Z,93.88
2022-10-17T15:22:10.780Z,95.74
2022-10-17T15:24:38.168Z,95.59
2022-10-17T15:27:07.647Z,96.51
2022-10-17T15:29:34.958Z,96.81
2022-10-17T15:32:02.275Z,96.81
2022-10-17T15:34:30.983Z,98.12
2022-10-17T15:36:58.694Z,99.59
2022-10-17T15:39:26.096Z,99.83
2022-10-17T15:41:53.440Z,100.00
2022-10-17T15:44:20.763Z,100.00
2022-10-17T15:46:48.097Z,100.00
2022-10-17T15:49:17.143Z,100.00
2022-10-17T15:51:45.805Z,100.00
2022-10-17T15:56:48.446Z,100.00
2022-10-17T15:59:16.529Z,100.00
2022-10-17T16:01:43.963Z,100.00
2022-10-17T16:04:12.852Z,100.00
2022-10-17T16:06:40.268Z,95.84
2022-10-17T16:09:08.931Z,96.07
2022-10-17T16:11:37.055Z,96.35
2022-10-17T16:14:05.362Z,96.07
2022-10-17T16:16:32.707Z,94.22
2022-10-17T16:19:01.366Z,94.61
2022-10-17T16:24:02.074Z,95.73
2022-10-17T16:26:30.818Z,96.29
2022-10-17T16:29:02.528Z,95.35
2022-10-17T16:31:32.175Z,96.11
2022-10-17T16:34:00.413Z,98.15
2022-10-17T16:36:27.742Z,97.46
2022-10-17T16:38:55.139Z,97.37
2022-10-17T16:41:23.816Z,97.39
2022-10-17T16:43:53.438Z,97.39
2022-10-17T16:46:21.310Z,97.28
2022-10-17T16:48:49.003Z,97.07
2022-10-17T16:51:18.048Z,96.86
2022-10-17T16:53:45.727Z,96.79
2022-10-17T16:56:14.385Z,96.53
2022-10-17T16:58:42.099Z,96.61
2022-10-17T17:01:12.914Z,96.42
2022-10-17T17:03:40.943Z,96.30
2022-10-17T17:06:08.851Z,96.27
2022-10-17T17:08:37.961Z,95.43
2022-10-17T17:11:07.242Z,95.81
2022-10-17T17:13:34.734Z,95.62
2022-10-17T17:16:05.488Z,95.66
2022-10-17T17:18:34.539Z,95.82
2022-10-17T17:21:02.551Z,95.86
2022-10-17T17:23:30.603Z,95.45
2022-10-17T17:25:58.523Z,95.33
2022-10-17T17:28:27.011Z,94.40
2022-10-17T17:30:54.739Z,94.90
2022-10-17T17:33:22.179Z,95.54
2022-10-17T17:35:54.622Z,95.05
2022-10-17T17:38:21.975Z,95.03
2022-10-17T17:40:50.834Z,94.80
2022-10-17T17:43:18.883Z,94.28
2022-10-17T17:45:46.236Z,94.10
2022-10-17T17:48:13.798Z,94.16
2022-10-17T17:50:41.599Z,94.20
2022-10-17T17:53:10.808Z,94.28
2022-10-17T17:55:38.180Z,94.47
2022-10-17T17:58:05.983Z,94.25
2022-10-17T18:00:34.798Z,95.98
2022-10-17T18:03:02.668Z,94.12
2022-10-17T18:05:30.510Z,93.75
2022-10-17T18:07:57.864Z,93.60
2022-10-17T18:10:28.303Z,93.30
2022-10-17T18:12:55.673Z,93.74
2022-10-17T18:15:23.146Z,93.40
2022-10-17T18:17:50.527Z,93.21
2022-10-17T18:20:17.930Z,94.56
2022-10-17T18:22:45.324Z,94.44
2022-10-17T18:25:12.671Z,93.62
2022-10-17T18:27:41.579Z,93.17
2022-10-17T18:30:09.474Z,92.80
2022-10-17T18:32:36.818Z,93.05
2022-10-17T18:35:04.326Z,93.78
2022-10-17T18:37:31.736Z,92.87
2022-10-17T18:39:59.095Z,92.67
2022-10-17T18:42:26.451Z,92.87
2022-10-17T18:44:55.160Z,93.04
2022-10-17T18:47:22.471Z,92.57
2022-10-17T18:49:49.941Z,92.89
2022-10-17T18:52:17.327Z,92.61
2022-10-17T18:54:44.673Z,91.85
2022-10-17T18:57:12.097Z,91.98
2022-10-17T18:59:39.445Z,91.98
2022-10-17T19:02:09.718Z,92.07
2022-10-17T19:04:37.106Z,92.25
2022-10-17T19:07:04.732Z,92.35
2022-10-17T19:09:32.236Z,92.63
2022-10-17T19:12:00.144Z,91.88
2022-10-17T19:14:28.609Z,92.21
2022-10-17T19:16:57.094Z,92.41
2022-10-17T19:19:26.551Z,92.21
2022-10-17T19:21:53.965Z,91.93
2022-10-17T19:24:22.262Z,91.81
2022-10-17T19:26:52.932Z,92.05
2022-10-17T19:29:20.890Z,92.09
2022-10-17T19:31:48.565Z,91.73
2022-10-17T19:34:16.441Z,91.55
2022-10-17T19:36:45.419Z,91.43
2022-10-17T19:39:13.978Z,91.30
2022-10-17T19:41:41.410Z,91.49
2022-10-17T19:44:08.800Z,91.27
2022-10-17T19:46:36.167Z,91.39
2022-10-17T19:49:03.689Z,90.95
2022-10-17T19:51:31.530Z,91.18
2022-10-17T19:54:01.082Z,91.11
2022-10-17T19:56:29.070Z,91.37
2022-10-17T19:58:57.095Z,90.92
2022-10-17T20:01:26.082Z,91.20
2022-10-17T20:03:54.172Z,91.14
2022-10-17T20:06:21.527Z,91.09
2022-10-17T20:08:48.954Z,90.64
2022-10-17T20:11:18.940Z,90.39
2022-10-17T20:13:46.801Z,90.71
2022-10-17T20:16:15.109Z,90.80
2022-10-17T20:18:43.069Z,90.47
2022-10-17T20:21:12.061Z,90.38
2022-10-17T20:23:39.810Z,90.20
2022-10-17T20:26:25.383Z,90.27
2022-10-17T20:28:57.645Z,90.13
2022-10-17T20:31:25.311Z,90.17
2022-10-17T20:33:55.301Z,90.39
2022-10-17T20:36:23.396Z,90.16
2022-10-17T20:38:53.446Z,90.24
2022-10-17T20:41:20.776Z,90.36
2022-10-17T20:43:50.884Z,90.21
2022-10-17T20:46:35.176Z,89.96
2022-10-17T20:49:03.295Z,90.00
2022-10-17T20:51:30.826Z,89.67
2022-10-17T20:53:58.250Z,89.75
2022-10-17T20:56:26.416Z,89.70
2022-10-17T20:58:54.377Z,89.59
2022-10-17T21:01:23.547Z,89.87
2022-10-17T21:03:51.259Z,89.50
2022-10-17T21:06:19.235Z,89.55
2022-10-17T21:08:47.428Z,89.42
2022-10-17T21:11:16.124Z,89.36
2022-10-17T21:13:43.511Z,89.62
2022-10-17T21:16:11.713Z,89.43
2022-10-17T21:18:40.879Z,89.33
2022-10-17T21:21:09.683Z,89.40
2022-10-17T21:23:37.173Z,89.45
2022-10-17T21:26:06.895Z,89.46
2022-10-17T21:28:34.956Z,88.89
2022-10-17T21:31:09.187Z,89.36
2022-10-17T21:33:36.533Z,88.95
2022-10-17T21:36:05.475Z,88.82
2022-10-17T21:38:33.006Z,88.96
2022-10-17T21:41:00.350Z,88.83
2022-10-17T21:43:27.770Z,88.92
2022-10-17T21:45:55.102Z,88.67
2022-10-17T21:48:22.456Z,88.93
2022-10-17T21:50:49.804Z,88.73
2022-10-17T21:53:18.477Z,88.93
2022-10-17T21:55:45.807Z,88.85
2022-10-17T21:58:13.197Z,88.90
2022-10-17T22:00:40.551Z,89.00
2022-10-17T22:03:09.448Z,88.96
2022-10-17T22:05:36.791Z,88.53
2022-10-17T22:08:04.236Z,88.58
2022-10-17T22:10:32.962Z,88.58
2022-10-17T22:13:00.306Z,88.97
2022-10-17T22:15:27.655Z,88.27
2022-10-17T22:17:55.006Z,88.71
2022-10-17T22:20:22.341Z,88.98
2022-10-17T22:22:49.758Z,88.89
2022-10-17T22:25:17.143Z,88.89
2022-10-17T22:27:45.801Z,88.85
2022-10-17T22:30:13.150Z,88.73
2022-10-17T22:32:40.499Z,88.62
2022-10-17T22:35:11.177Z,88.36
2022-10-17T22:37:38.546Z,88.43
2022-10-17T22:40:06.653Z,88.31
2022-10-17T22:42:34.511Z,88.25
2022-10-17T22:45:03.513Z,88.34
2022-10-17T22:47:31.555Z,88.14
2022-10-17T22:49:59.118Z,88.42
2022-10-17T22:52:26.442Z,88.42
2022-10-17T22:54:53.801Z,88.07
2022-10-17T22:57:21.157Z,88.32
2022-10-17T22:59:48.483Z,87.90
2022-10-17T23:02:17.193Z,87.97
2022-10-17T23:04:44.509Z,88.15
2022-10-17T23:07:14.057Z,88.47
2022-10-17T23:09:41.678Z,88.40
2022-10-17T23:12:09.618Z,88.34
2022-10-17T23:14:38.341Z,88.38
2022-10-17T23:17:05.869Z,88.24
2022-10-17T23:19:34.729Z,88.05
2022-10-17T23:22:02.145Z,87.89
2022-10-17T23:24:29.537Z,87.88
2022-10-17T23:26:57.244Z,87.90
2022-10-17T23:29:25.327Z,87.98
2022-10-17T23:31:54.771Z,87.80
2022-10-17T23:34:22.216Z,88.15
2022-10-17T23:36:52.187Z,87.61
2022-10-17T23:39:19.557Z,88.08
2022-10-17T23:41:46.894Z,87.93
2022-10-17T23:44:14.643Z,87.87
2022-10-17T23:46:41.977Z,88.23
2022-10-17T23:49:09.385Z,87.63
2022-10-17T23:51:36.717Z,87.89
2022-10-17T23:54:05.668Z,88.07
2022-10-17T23:56:32.986Z,87.79
2022-10-17T23:59:00.758Z,87.93
